createdAt,value
2023-06-29T00:01:33.567Z,5.92
2023-06-29T00:04:40.869Z,8.50
2023-06-29T00:07:46.217Z,5.87
2023-06-29T00:10:52.485Z,6.28
2023-06-29T00:13:59.155Z,5.10
2023-06-29T00:17:07.471Z,5.53
2023-06-29T00:20:14.628Z,7.03
2023-06-29T00:23:21.930Z,7.65
2023-06-29T00:26:27.285Z,4.50
2023-06-29T00:29:33.455Z,6.05
2023-06-29T00:32:39.632Z,5.58
2023-06-29T00:35:47.004Z,7.40
2023-06-29T00:38:55.843Z,7.53
2023-06-29T00:42:09.570Z,6.45
2023-06-29T00:45:16.316Z,6.17
2023-06-29T00:48:22.244Z,5.05
2023-06-29T00:51:29.498Z,7.85
2023-06-29T00:54:35.880Z,5.20
2023-06-29T00:57:42.663Z,5.25
2023-06-29T01:00:52.292Z,4.33
2023-06-29T01:04:01.001Z,4.87
2023-06-29T01:07:19.225Z,5.35
2023-06-29T01:10:25.674Z,7.53
2023-06-29T01:13:34.997Z,4.97
2023-06-29T01:16:41.616Z,5.17
2023-06-29T01:19:49.130Z,7.28
2023-06-29T01:23:07.289Z,6.12
2023-06-29T01:26:13.362Z,8.40
2023-06-29T01:29:21.650Z,5.37
2023-06-29T01:32:26.756Z,7.30
2023-06-29T01:35:32.857Z,5.25
2023-06-29T01:38:47.020Z,10.43
2023-06-29T01:41:56.651Z,4.92
2023-06-29T01:45:03.606Z,6.92
2023-06-29T01:48:11.568Z,5.75
2023-06-29T01:51:20.468Z,5.10
2023-06-29T01:54:26.206Z,6.47
2023-06-29T01:57:33.503Z,6.25
2023-06-29T02:00:39.562Z,6.60
2023-06-29T02:03:46.660Z,6.40
2023-06-29T02:06:52.216Z,5.83
2023-06-29T02:09:59.607Z,6.10
2023-06-29T02:13:05.074Z,5.60
2023-06-29T02:16:12.186Z,8.05
2023-06-29T02:19:19.017Z,6.10
2023-06-29T02:22:26.211Z,9.23
2023-06-29T02:25:32.680Z,7.20
2023-06-29T02:28:40.380Z,7.53
2023-06-29T02:31:47.296Z,8.10
2023-06-29T02:34:55.575Z,6.92
2023-06-29T02:38:02.023Z,6.67
2023-06-29T02:41:07.062Z,6.37
2023-06-29T02:44:13.931Z,8.80
2023-06-29T02:47:23.457Z,6.22
2023-06-29T02:50:29.852Z,9.45
2023-06-29T02:53:35.681Z,10.88
2023-06-29T02:56:41.552Z,6.45
2023-06-29T02:59:48.162Z,8.83
2023-06-29T03:02:54.833Z,7.92
2023-06-29T03:06:02.841Z,7.72
2023-06-29T03:09:11.163Z,6.53
2023-06-29T03:12:18.442Z,9.88
2023-06-29T03:15:25.126Z,8.48
2023-06-29T03:18:31.848Z,8.08
2023-06-29T03:21:37.451Z,9.88
2023-06-29T03:24:44.539Z,11.33
2023-06-29T03:27:51.292Z,7.62
2023-06-29T03:30:59.588Z,8.03
2023-06-29T03:34:05.791Z,8.05
2023-06-29T03:37:11.114Z,11.85
2023-06-29T03:40:18.003Z,7.90
2023-06-29T03:43:23.498Z,9.73
2023-06-29T03:46:29.024Z,9.18
2023-06-29T03:49:35.275Z,7.87
2023-06-29T03:52:42.657Z,6.30
2023-06-29T03:55:50.095Z,11.15
2023-06-29T03:58:56.228Z,8.03
2023-06-29T04:02:03.360Z,11.35
2023-06-29T04:05:10.823Z,8.10
2023-06-29T04:08:18.303Z,8.28
2023-06-29T04:11:25.144Z,9.08
2023-06-29T04:14:30.479Z,6.62
2023-06-29T04:17:35.369Z,9.13
2023-06-29T04:20:41.496Z,7.40
2023-06-29T04:23:48.644Z,9.23
2023-06-29T04:26:55.783Z,7.03
2023-06-29T04:30:01.870Z,8.93
2023-06-29T04:33:09.123Z,7.17
2023-06-29T04:36:14.545Z,7.35
2023-06-29T04:39:20.335Z,8.15
2023-06-29T04:42:26.738Z,6.67
2023-06-29T04:45:33.221Z,6.08
2023-06-29T04:48:41.055Z,6.70
2023-06-29T04:51:46.242Z,8.00
2023-06-29T04:54:51.153Z,6.80
2023-06-29T04:57:57.288Z,6.75
2023-06-29T05:01:04.502Z,6.83
2023-06-29T05:04:10.679Z,8.13
2023-06-29T05:07:16.701Z,7.00
2023-06-29T05:10:22.452Z,11.45
2023-06-29T05:13:28.989Z,7.47
2023-06-29T05:16:34.920Z,5.08
2023-06-29T05:19:42.627Z,6.40
2023-06-29T05:22:48.783Z,6.53
2023-06-29T05:25:55.026Z,6.33
2023-06-29T05:29:05.981Z,6.33
2023-06-29T05:32:11.992Z,5.62
2023-06-29T05:35:20.905Z,8.28
2023-06-29T05:38:29.891Z,8.78
2023-06-29T05:41:38.149Z,9.28
2023-06-29T05:44:45.641Z,5.17
2023-06-29T05:47:51.855Z,6.67
2023-06-29T05:50:59.700Z,4.50
2023-06-29T05:54:06.195Z,5.55
2023-06-29T05:57:14.211Z,5.60
2023-06-29T06:00:21.994Z,5.12
2023-06-29T06:03:30.101Z,8.25
2023-06-29T06:06:39.126Z,5.75
2023-06-29T06:09:44.177Z,3.95
2023-06-29T06:12:50.865Z,4.62
2023-06-29T06:15:57.635Z,6.35
2023-06-29T06:19:03.383Z,4.28
2023-06-29T06:22:08.733Z,4.08
2023-06-29T06:25:14.203Z,6.72
2023-06-29T06:28:18.691Z,6.08
2023-06-29T06:31:33.507Z,6.10
2023-06-29T06:34:35.843Z,5.22
2023-06-29T06:37:42.130Z,4.12
2023-06-29T06:40:47.675Z,3.75
2023-06-29T06:43:55.713Z,5.33
2023-06-29T06:47:00.713Z,4.78
2023-06-29T06:50:07.332Z,5.03
2023-06-29T06:53:12.801Z,4.40
2023-06-29T06:56:21.301Z,4.58
2023-06-29T06:59:27.649Z,5.92
2023-06-29T07:02:33.490Z,4.17
2023-06-29T07:05:39.470Z,3.77
2023-06-29T07:08:46.643Z,3.37
2023-06-29T07:11:54.585Z,2.47
2023-06-29T07:15:00.356Z,3.85
2023-06-29T07:18:09.356Z,5.30
2023-06-29T07:21:17.752Z,4.45
2023-06-29T07:24:22.095Z,4.78
2023-06-29T07:27:27.500Z,2.98
2023-06-29T07:30:32.982Z,5.92
2023-06-29T07:33:38.851Z,4.58
2023-06-29T07:36:47.428Z,5.40
2023-06-29T07:39:53.385Z,4.53
2023-06-29T07:42:59.837Z,5.83
2023-06-29T07:46:07.173Z,2.52
2023-06-29T07:49:13.204Z,4.60
2023-06-29T07:52:19.505Z,3.58
2023-06-29T07:55:24.806Z,3.83
2023-06-29T08:01:40.905Z,3.10
2023-06-29T08:07:58.834Z,4.37
2023-06-29T08:11:07.095Z,1.75
2023-06-29T08:14:15.123Z,11.57
2023-06-29T08:17:20.728Z,4.53
2023-06-29T08:20:27.857Z,3.98
2023-06-29T08:23:36.126Z,2.87
2023-06-29T08:26:42.684Z,5.72
2023-06-29T08:29:48.619Z,3.45
2023-06-29T08:32:56.606Z,3.12
2023-06-29T08:36:03.698Z,2.25
2023-06-29T08:39:10.741Z,3.22
2023-06-29T08:42:17.300Z,4.85
2023-06-29T08:45:24.861Z,2.37
2023-06-29T08:48:32.208Z,3.75
2023-06-29T08:51:40.383Z,2.45
2023-06-29T08:54:48.357Z,6.17
2023-06-29T08:57:54.390Z,2.92
2023-06-29T09:01:04.289Z,2.58
2023-06-29T09:04:10.460Z,1.52
2023-06-29T09:07:16.409Z,2.30
2023-06-29T09:10:23.417Z,2.62
2023-06-29T09:13:30.988Z,3.22
2023-06-29T09:16:39.081Z,1.62
2023-06-29T09:19:43.867Z,2.30
2023-06-29T09:22:49.929Z,1.37
2023-06-29T09:25:56.216Z,2.98
2023-06-29T09:29:03.111Z,1.90
2023-06-29T09:32:17.359Z,5.40
2023-06-29T09:35:24.074Z,3.02
2023-06-29T09:38:32.609Z,4.72
2023-06-29T09:41:38.434Z,3.15
2023-06-29T09:44:44.735Z,1.98
2023-06-29T09:51:07.120Z,1.57
2023-06-29T09:54:17.652Z,1.92
2023-06-29T09:57:23.752Z,4.08
2023-06-29T10:00:30.810Z,2.08
2023-06-29T10:03:39.632Z,4.70
2023-06-29T10:06:50.004Z,2.30
2023-06-29T10:09:59.657Z,2.02
2023-06-29T10:13:09.301Z,1.90
2023-06-29T10:16:15.577Z,2.37
2023-06-29T10:19:37.803Z,3.55
2023-06-29T10:22:44.386Z,2.80
2023-06-29T10:25:52.259Z,2.35
2023-06-29T10:28:58.653Z,1.47
2023-06-29T10:32:05.219Z,2.05
2023-06-29T10:35:20.526Z,1.77
2023-06-29T10:38:28.905Z,2.27
2023-06-29T10:41:44.278Z,3.27
2023-06-29T10:44:53.035Z,10.28
2023-06-29T10:48:18.168Z,2.05
2023-06-29T10:51:24.706Z,1.12
2023-06-29T10:54:32.149Z,1.52
2023-06-29T10:57:44.567Z,3.45
2023-06-29T11:03:56.359Z,1.72
2023-06-29T11:07:01.414Z,2.60
2023-06-29T11:10:17.536Z,3.12
2023-06-29T11:13:25.811Z,2.05
2023-06-29T11:16:32.477Z,6.30
2023-06-29T11:19:46.806Z,1.47
2023-06-29T11:22:53.115Z,1.45
2023-06-29T11:26:00.667Z,2.67
2023-06-29T11:29:08.993Z,0.90
2023-06-29T11:32:19.085Z,1.42
2023-06-29T11:35:30.658Z,3.33
2023-06-29T11:38:37.419Z,2.33
2023-06-29T11:41:46.121Z,1.02
2023-06-29T11:44:52.516Z,1.62
2023-06-29T11:47:59.962Z,8.88
2023-06-29T11:51:07.318Z,3.10
2023-06-29T11:54:15.070Z,3.40
2023-06-29T11:57:22.779Z,4.03
2023-06-29T12:00:33.339Z,3.10
2023-06-29T12:03:39.539Z,4.33
2023-06-29T12:06:46.458Z,2.47
2023-06-29T12:09:53.928Z,4.92
2023-06-29T12:13:07.461Z,3.58
2023-06-29T12:19:29.903Z,2.30
2023-06-29T12:22:38.329Z,2.37
2023-06-29T12:25:46.968Z,4.10
2023-06-29T12:28:54.367Z,4.10
2023-06-29T12:32:02.696Z,3.83
2023-06-29T12:35:09.932Z,2.05
2023-06-29T12:38:14.663Z,2.77
2023-06-29T12:41:21.369Z,5.15
2023-06-29T12:44:28.303Z,4.47
2023-06-29T12:47:34.831Z,4.22
2023-06-29T12:50:40.820Z,3.37
2023-06-29T12:53:46.883Z,3.00
2023-06-29T12:56:55.533Z,4.12
2023-06-29T13:00:02.578Z,2.55
2023-06-29T13:03:10.953Z,3.02
2023-06-29T13:06:17.094Z,3.33
2023-06-29T13:09:23.232Z,10.80
2023-06-29T13:12:30.124Z,2.17
2023-06-29T13:15:36.017Z,3.67
2023-06-29T13:18:43.822Z,3.87
2023-06-29T13:21:51.079Z,5.65
2023-06-29T13:24:56.525Z,8.88
2023-06-29T13:28:03.466Z,13.20
2023-06-29T13:31:09.370Z,4.53
2023-06-29T13:34:16.101Z,2.40
2023-06-29T13:37:22.717Z,4.67
2023-06-29T13:40:29.376Z,3.10
2023-06-29T13:43:35.891Z,2.58
2023-06-29T13:46:45.155Z,2.45
2023-06-29T13:49:52.108Z,6.17
2023-06-29T13:52:59.374Z,3.05
2023-06-29T13:56:05.497Z,3.67
2023-06-29T13:59:16.691Z,3.77
2023-06-29T14:02:21.693Z,3.25
2023-06-29T14:05:27.861Z,2.42
2023-06-29T14:08:33.262Z,5.03
2023-06-29T14:11:40.372Z,9.13
2023-06-29T14:14:51.014Z,2.72
2023-06-29T14:17:57.311Z,3.65
2023-06-29T14:21:05.017Z,5.12
2023-06-29T14:24:11.376Z,2.90
2023-06-29T14:27:17.529Z,5.00
2023-06-29T14:30:26.202Z,4.33
2023-06-29T14:33:32.650Z,2.25
2023-06-29T14:36:37.915Z,2.70
2023-06-29T14:39:44.303Z,2.83
2023-06-29T14:42:51.701Z,5.65
2023-06-29T14:45:56.013Z,6.78
2023-06-29T14:49:02.828Z,5.20
2023-06-29T14:52:09.189Z,5.15
2023-06-29T14:55:15.561Z,4.25
2023-06-29T14:58:21.697Z,5.40
2023-06-29T15:01:28.888Z,2.62
2023-06-29T15:04:34.727Z,4.00
2023-06-29T15:07:40.797Z,4.80
2023-06-29T15:10:46.382Z,5.10
2023-06-29T15:13:54.822Z,4.70
2023-06-29T15:17:01.636Z,4.90
2023-06-29T15:20:08.433Z,4.53
2023-06-29T15:23:14.450Z,4.72
2023-06-29T15:26:18.735Z,5.55
2023-06-29T15:29:18.611Z,4.35
2023-06-29T15:32:06.302Z,5.37
2023-06-29T15:34:59.158Z,6.80
2023-06-29T15:37:47.421Z,6.37
2023-06-29T15:40:39.801Z,3.58
2023-06-29T15:43:28.582Z,3.30
2023-06-29T15:46:22.193Z,4.62
2023-06-29T15:49:14.804Z,2.77
2023-06-29T15:52:21.396Z,2.70
2023-06-29T15:55:26.971Z,4.22
2023-06-29T15:58:35.303Z,2.12
2023-06-29T16:01:41.843Z,2.52
2023-06-29T16:04:50.150Z,3.33
2023-06-29T16:08:01.232Z,4.55
2023-06-29T16:11:06.554Z,3.55
2023-06-29T16:14:12.795Z,5.40
2023-06-29T16:17:18.790Z,4.10
2023-06-29T16:20:26.026Z,5.45
2023-06-29T16:23:33.133Z,5.60
2023-06-29T16:26:39.046Z,3.75
2023-06-29T16:29:44.685Z,4.05
2023-06-29T16:32:51.942Z,5.08
2023-06-29T16:36:00.188Z,4.03
2023-06-29T16:39:05.215Z,6.17
2023-06-29T16:42:12.037Z,2.75
2023-06-29T16:45:18.282Z,3.37
2023-06-29T16:48:23.821Z,3.42
2023-06-29T16:51:28.767Z,2.62
2023-06-29T16:54:36.062Z,4.12
2023-06-29T16:57:41.858Z,2.22
2023-06-29T17:00:48.432Z,3.02
2023-06-29T17:03:56.580Z,3.35
2023-06-29T17:07:02.622Z,5.30
2023-06-29T17:10:09.048Z,6.90
2023-06-29T17:13:14.970Z,5.90
2023-06-29T17:16:21.740Z,2.98
2023-06-29T17:19:27.449Z,4.90
2023-06-29T17:22:33.442Z,4.85
2023-06-29T17:25:39.578Z,3.12
2023-06-29T17:28:46.291Z,6.12
2023-06-29T17:31:52.545Z,7.53
2023-06-29T17:34:57.664Z,7.58
2023-06-29T17:37:57.335Z,10.65
2023-06-29T17:40:50.945Z,8.75
2023-06-29T17:43:59.072Z,6.28
2023-06-29T17:47:05.217Z,5.22
2023-06-29T17:50:11.407Z,7.87
2023-06-29T17:53:18.942Z,6.90
2023-06-29T17:56:26.520Z,5.90
2023-06-29T17:59:33.362Z,10.05
2023-06-29T18:02:40.420Z,7.65
2023-06-29T18:05:47.175Z,9.33
2023-06-29T18:08:53.267Z,7.72
2023-06-29T18:12:04.177Z,5.78
2023-06-29T18:15:09.585Z,6.40
2023-06-29T18:18:17.316Z,3.27
2023-06-29T18:21:25.249Z,4.03
2023-06-29T18:24:31.903Z,5.75
2023-06-29T18:27:38.040Z,7.53
2023-06-29T18:30:43.962Z,7.15
2023-06-29T18:33:50.999Z,6.35
2023-06-29T18:36:56.880Z,6.78
2023-06-29T18:40:03.418Z,7.33
2023-06-29T18:43:08.542Z,6.03
2023-06-29T18:46:15.791Z,4.28
2023-06-29T18:49:21.966Z,6.37
2023-06-29T18:52:31.074Z,4.03
2023-06-29T18:55:39.973Z,6.00
2023-06-29T18:58:47.031Z,2.58
2023-06-29T19:01:54.155Z,4.40
2023-06-29T19:05:00.816Z,2.52
2023-06-29T19:08:07.350Z,3.72
2023-06-29T19:11:15.088Z,3.05
2023-06-29T19:14:23.206Z,4.67
2023-06-29T19:17:28.030Z,2.83
2023-06-29T19:20:34.865Z,4.17
2023-06-29T19:23:40.844Z,2.87
2023-06-29T19:26:49.091Z,3.90
2023-06-29T19:29:55.747Z,3.65
2023-06-29T19:33:03.103Z,5.22
2023-06-29T19:36:10.954Z,4.15
2023-06-29T19:39:17.507Z,5.17
2023-06-29T19:42:24.711Z,5.45
2023-06-29T19:45:31.804Z,3.98
2023-06-29T19:48:39.805Z,3.40
2023-06-29T19:51:46.868Z,3.70
2023-06-29T19:54:54.309Z,4.50
2023-06-29T19:58:00.135Z,4.62
2023-06-29T20:01:06.282Z,5.45
2023-06-29T20:04:12.445Z,5.30
2023-06-29T20:07:19.303Z,4.58
2023-06-29T20:10:25.708Z,6.60
2023-06-29T20:13:30.864Z,5.50
2023-06-29T20:16:36.211Z,5.05
2023-06-29T20:19:42.625Z,5.37
2023-06-29T20:22:49.557Z,5.28
2023-06-29T20:25:57.460Z,3.80
2023-06-29T20:29:03.509Z,5.92
2023-06-29T20:32:10.958Z,6.83
2023-06-29T20:35:17.889Z,5.97
2023-06-29T20:38:23.727Z,4.40
2023-06-29T20:41:30.515Z,6.83
2023-06-29T20:44:38.222Z,5.83
2023-06-29T20:47:44.579Z,5.72
2023-06-29T20:50:53.493Z,4.62
2023-06-29T20:53:59.520Z,4.65
2023-06-29T20:57:06.027Z,5.67
2023-06-29T21:00:11.863Z,9.33
2023-06-29T21:03:19.939Z,6.22
2023-06-29T21:06:26.144Z,6.22
2023-06-29T21:09:33.329Z,6.03
2023-06-29T21:12:41.361Z,6.83
2023-06-29T21:15:47.308Z,5.80
2023-06-29T21:18:55.743Z,6.78
2023-06-29T21:22:01.661Z,7.67
2023-06-29T21:25:08.851Z,4.87
2023-06-29T21:28:15.248Z,7.28
2023-06-29T21:31:21.039Z,8.58
2023-06-29T21:34:28.149Z,7.92
2023-06-29T21:37:33.942Z,6.75
2023-06-29T21:40:40.094Z,8.13
2023-06-29T21:43:47.175Z,8.65
2023-06-29T21:46:54.626Z,6.28
2023-06-29T21:50:01.168Z,7.42
2023-06-29T21:53:07.121Z,9.00
2023-06-29T21:56:25.080Z,5.78
2023-06-29T21:59:20.782Z,6.55
2023-06-29T22:02:27.405Z,9.73
2023-06-29T22:05:33.500Z,12.23
2023-06-29T22:08:39.789Z,10.18
2023-06-29T22:11:47.370Z,6.12
2023-06-29T22:14:55.095Z,8.08
2023-06-29T22:18:04.879Z,8.43
2023-06-29T22:21:12.461Z,6.47
2023-06-29T22:24:19.171Z,8.08
2023-06-29T22:27:26.185Z,7.33
2023-06-29T22:30:33.195Z,6.75
2023-06-29T22:33:39.196Z,6.92
2023-06-29T22:36:45.378Z,7.85
2023-06-29T22:39:51.546Z,8.35
2023-06-29T22:42:56.701Z,7.35
2023-06-29T22:46:03.085Z,7.97
2023-06-29T22:49:09.541Z,8.58
2023-06-29T22:52:16.102Z,7.37
2023-06-29T22:55:23.810Z,6.33
2023-06-29T22:58:36.749Z,6.92
2023-06-29T23:01:43.611Z,7.58
2023-06-29T23:04:51.468Z,9.60
2023-06-29T23:07:59.829Z,8.08
2023-06-29T23:11:06.180Z,7.85
2023-06-29T23:14:19.287Z,8.88
2023-06-29T23:17:26.427Z,9.65
2023-06-29T23:20:34.313Z,10.35
2023-06-29T23:23:40.455Z,8.48
2023-06-29T23:26:47.291Z,8.23
2023-06-29T23:29:53.610Z,9.23
2023-06-29T23:33:00.466Z,6.87
2023-06-29T23:36:05.531Z,6.67
2023-06-29T23:39:13.939Z,9.08
2023-06-29T23:42:22.285Z,7.20
2023-06-29T23:45:29.561Z,6.65
2023-06-29T23:48:38.640Z,6.35
2023-06-29T23:51:38.801Z,7.05
2023-06-29T23:54:26.265Z,9.43
2023-06-29T23:57:20.451Z,6.95
